sensor_id;sensor_type;location;lat;lon;timestamp;pressure;altitude;pressure_sealevel;temperature
20730;BMP280;10526;50.850;12.928;2022-08-27T00:00:37;97556.00;;;18.19
20730;BMP280;10526;50.850;12.928;2022-08-27T00:04:59;97558.06;;;18.25
20730;BMP280;10526;50.850;12.928;2022-08-27T00:09:22;97559.38;;;18.29
20730;BMP280;10526;50.850;12.928;2022-08-27T00:13:48;97558.63;;;18.29
20730;BMP280;10526;50.850;12.928;2022-08-27T00:18:10;97557.56;;;18.35
20730;BMP280;10526;50.850;12.928;2022-08-27T00:22:33;97563.44;;;18.48
20730;BMP280;10526;50.850;12.928;2022-08-27T00:26:55;97560.41;;;18.56
20730;BMP280;10526;50.850;12.928;2022-08-27T00:31:17;97569.34;;;18.62
20730;BMP280;10526;50.850;12.928;2022-08-27T00:35:44;97568.13;;;18.63
20730;BMP280;10526;50.850;12.928;2022-08-27T00:40:10;97574.84;;;18.67
20730;BMP280;10526;50.850;12.928;2022-08-27T00:44:33;97575.72;;;18.73
20730;BMP280;10526;50.850;12.928;2022-08-27T00:49:02;97580.19;;;18.76
20730;BMP280;10526;50.850;12.928;2022-08-27T00:53:29;97577.75;;;18.78
20730;BMP280;10526;50.850;12.928;2022-08-27T00:58:34;97584.19;;;18.81
20730;BMP280;10526;50.850;12.928;2022-08-27T01:02:57;97585.88;;;18.78
20730;BMP280;10526;50.850;12.928;2022-08-27T01:07:21;97584.38;;;18.77
20730;BMP280;10526;50.850;12.928;2022-08-27T01:11:46;97582.88;;;18.76
20730;BMP280;10526;50.850;12.928;2022-08-27T01:16:09;97591.91;;;18.73
20730;BMP280;10526;50.850;12.928;2022-08-27T01:20:57;97588.63;;;18.69
20730;BMP280;10526;50.850;12.928;2022-08-27T01:25:21;97596.91;;;18.66
20730;BMP280;10526;50.850;12.928;2022-08-27T01:29:44;97591.91;;;18.73
20730;BMP280;10526;50.850;12.928;2022-08-27T01:34:06;97601.19;;;18.72
20730;BMP280;10526;50.850;12.928;2022-08-27T01:38:28;97595.81;;;18.72
20730;BMP280;10526;50.850;12.928;2022-08-27T01:42:54;97597.84;;;18.77
20730;BMP280;10526;50.850;12.928;2022-08-27T01:47:20;97594.91;;;18.75
20730;BMP280;10526;50.850;12.928;2022-08-27T01:51:42;97589.38;;;18.70
20730;BMP280;10526;50.850;12.928;2022-08-27T01:56:04;97593.41;;;18.74
20730;BMP280;10526;50.850;12.928;2022-08-27T02:00:35;97586.50;;;18.73
20730;BMP280;10526;50.850;12.928;2022-08-27T02:04:57;97583.50;;;18.71
20730;BMP280;10526;50.850;12.928;2022-08-27T02:09:19;97580.81;;;18.71
20730;BMP280;10526;50.850;12.928;2022-08-27T02:13:41;97575.16;;;18.69
20730;BMP280;10526;50.850;12.928;2022-08-27T02:18:06;97578.09;;;18.71
20730;BMP280;10526;50.850;12.928;2022-08-27T02:22:28;97578.59;;;18.70
20730;BMP280;10526;50.850;12.928;2022-08-27T02:26:50;97580.25;;;18.67
20730;BMP280;10526;50.850;12.928;2022-08-27T02:31:12;97581.44;;;18.66
20730;BMP280;10526;50.850;12.928;2022-08-27T02:35:36;97582.31;;;18.72
20730;BMP280;10526;50.850;12.928;2022-08-27T02:40:06;97586.84;;;18.66
20730;BMP280;10526;50.850;12.928;2022-08-27T02:44:29;97578.50;;;18.64
20730;BMP280;10526;50.850;12.928;2022-08-27T02:48:53;97576.94;;;18.72
20730;BMP280;10526;50.850;12.928;2022-08-27T02:53:15;97578.09;;;18.71
20730;BMP280;10526;50.850;12.928;2022-08-27T02:57:37;97575.63;;;18.68
20730;BMP280;10526;50.850;12.928;2022-08-27T03:01:59;97567.31;;;18.71
20730;BMP280;10526;50.850;12.928;2022-08-27T03:06:22;97564.94;;;18.73
20730;BMP280;10526;50.850;12.928;2022-08-27T03:10:44;97570.31;;;18.73
20730;BMP280;10526;50.850;12.928;2022-08-27T03:15:11;97577.94;;;18.75
20730;BMP280;10526;50.850;12.928;2022-08-27T03:19:33;97578.06;;;18.80
20730;BMP280;10526;50.850;12.928;2022-08-27T03:23:56;97583.16;;;18.78
20730;BMP280;10526;50.850;12.928;2022-08-27T03:28:24;97582.88;;;18.76
20730;BMP280;10526;50.850;12.928;2022-08-27T03:32:48;97590.41;;;18.72
20730;BMP280;10526;50.850;12.928;2022-08-27T03:37:10;97584.47;;;18.68
20730;BMP280;10526;50.850;12.928;2022-08-27T03:41:32;97591.97;;;18.64
20730;BMP280;10526;50.850;12.928;2022-08-27T03:46:14;97591.53;;;18.66
20730;BMP280;10526;50.850;12.928;2022-08-27T03:50:40;97593.72;;;18.67
20730;BMP280;10526;50.850;12.928;2022-08-27T03:55:04;97591.59;;;18.71
20730;BMP280;10526;50.850;12.928;2022-08-27T03:59:27;97597.31;;;18.73
20730;BMP280;10526;50.850;12.928;2022-08-27T04:03:49;97592.47;;;18.77
20730;BMP280;10526;50.850;12.928;2022-08-27T04:08:12;97591.53;;;18.80
20730;BMP280;10526;50.850;12.928;2022-08-27T04:12:34;97593.78;;;18.82
20730;BMP280;10526;50.850;12.928;2022-08-27T04:16:57;97595.28;;;18.83
20730;BMP280;10526;50.850;12.928;2022-08-27T04:21:19;97594.69;;;18.79
20730;BMP280;10526;50.850;12.928;2022-08-27T04:25:43;97592.78;;;18.79
20730;BMP280;10526;50.850;12.928;2022-08-27T04:30:06;97597.69;;;18.81
20730;BMP280;10526;50.850;12.928;2022-08-27T04:34:30;97601.44;;;18.83
20730;BMP280;10526;50.850;12.928;2022-08-27T04:38:52;97589.91;;;18.83
20730;BMP280;10526;50.850;12.928;2022-08-27T04:43:15;97591.25;;;18.78
20730;BMP280;10526;50.850;12.928;2022-08-27T04:47:38;97600.31;;;18.75
20730;BMP280;10526;50.850;12.928;2022-08-27T04:52:01;97595.34;;;18.74
20730;BMP280;10526;50.850;12.928;2022-08-27T04:56:23;97589.03;;;18.77
20730;BMP280;10526;50.850;12.928;2022-08-27T05:00:57;97596.03;;;18.83
20730;BMP280;10526;50.850;12.928;2022-08-27T05:05:22;97596.13;;;18.89
20730;BMP280;10526;50.850;12.928;2022-08-27T05:09:44;97597.16;;;18.92
20730;BMP280;10526;50.850;12.928;2022-08-27T05:14:08;97595.31;;;18.98
20730;BMP280;10526;50.850;12.928;2022-08-27T05:18:32;97601.25;;;19.02
20730;BMP280;10526;50.850;12.928;2022-08-27T05:23:02;97598.84;;;19.04
20730;BMP280;10526;50.850;12.928;2022-08-27T05:27:25;97591.97;;;19.03
20730;BMP280;10526;50.850;12.928;2022-08-27T05:31:47;97593.44;;;19.04
20730;BMP280;10526;50.850;12.928;2022-08-27T05:36:21;97602.28;;;19.04
20730;BMP280;10526;50.850;12.928;2022-08-27T05:40:45;97592.22;;;19.05
20730;BMP280;10526;50.850;12.928;2022-08-27T05:45:09;97597.94;;;19.07
20730;BMP280;10526;50.850;12.928;2022-08-27T05:49:35;97587.69;;;19.11
20730;BMP280;10526;50.850;12.928;2022-08-27T05:54:03;97591.88;;;19.12
20730;BMP280;10526;50.850;12.928;2022-08-27T05:58:29;97588.81;;;19.19
20730;BMP280;10526;50.850;12.928;2022-08-27T06:03:09;97593.84;;;19.26
20730;BMP280;10526;50.850;12.928;2022-08-27T06:07:34;97600.53;;;19.31
20730;BMP280;10526;50.850;12.928;2022-08-27T06:11:59;97601.03;;;19.29
20730;BMP280;10526;50.850;12.928;2022-08-27T06:16:22;97598.22;;;19.24
20730;BMP280;10526;50.850;12.928;2022-08-27T06:20:45;97598.41;;;19.20
20730;BMP280;10526;50.850;12.928;2022-08-27T06:25:07;97603.16;;;19.10
20730;BMP280;10526;50.850;12.928;2022-08-27T06:29:29;97610.19;;;19.08
20730;BMP280;10526;50.850;12.928;2022-08-27T06:33:57;97608.72;;;19.07
20730;BMP280;10526;50.850;12.928;2022-08-27T06:38:23;97605.00;;;19.19
20730;BMP280;10526;50.850;12.928;2022-08-27T06:42:45;97608.28;;;19.38
20730;BMP280;10526;50.850;12.928;2022-08-27T06:47:08;97614.06;;;19.45
20730;BMP280;10526;50.850;12.928;2022-08-27T06:51:33;97619.19;;;19.43
20730;BMP280;10526;50.850;12.928;2022-08-27T06:55:55;97616.72;;;19.31
20730;BMP280;10526;50.850;12.928;2022-08-27T07:00:17;97625.13;;;19.33
20730;BMP280;10526;50.850;12.928;2022-08-27T07:04:39;97621.22;;;19.34
20730;BMP280;10526;50.850;12.928;2022-08-27T07:09:02;97624.91;;;19.36
20730;BMP280;10526;50.850;12.928;2022-08-27T07:13:25;97622.69;;;19.35
20730;BMP280;10526;50.850;12.928;2022-08-27T07:17:48;97630.69;;;19.44
20730;BMP280;10526;50.850;12.928;2022-08-27T07:22:12;97641.25;;;19.57
20730;BMP280;10526;50.850;12.928;2022-08-27T07:26:38;97638.00;;;19.53
20730;BMP280;10526;50.850;12.928;2022-08-27T07:31:02;97639.72;;;19.70
20730;BMP280;10526;50.850;12.928;2022-08-27T07:35:24;97644.31;;;19.79
20730;BMP280;10526;50.850;12.928;2022-08-27T07:39:47;97645.22;;;19.76
20730;BMP280;10526;50.850;12.928;2022-08-27T07:44:09;97647.81;;;19.70
20730;BMP280;10526;50.850;12.928;2022-08-27T07:48:55;97639.66;;;19.65
20730;BMP280;10526;50.850;12.928;2022-08-27T07:53:19;97645.41;;;19.58
20730;BMP280;10526;50.850;12.928;2022-08-27T07:57:41;97650.94;;;19.49
20730;BMP280;10526;50.850;12.928;2022-08-27T08:02:05;97658.31;;;19.48
20730;BMP280;10526;50.850;12.928;2022-08-27T08:06:27;97657.06;;;19.49
20730;BMP280;10526;50.850;12.928;2022-08-27T08:10:49;97654.22;;;19.53
20730;BMP280;10526;50.850;12.928;2022-08-27T08:15:11;97658.94;;;19.72
20730;BMP280;10526;50.850;12.928;2022-08-27T08:19:34;97657.69;;;19.88
20730;BMP280;10526;50.850;12.928;2022-08-27T08:23:55;97664.41;;;19.93
20730;BMP280;10526;50.850;12.928;2022-08-27T08:28:17;97668.41;;;19.97
20730;BMP280;10526;50.850;12.928;2022-08-27T08:32:40;97670.47;;;20.02
20730;BMP280;10526;50.850;12.928;2022-08-27T08:37:05;97666.53;;;20.03
20730;BMP280;10526;50.850;12.928;2022-08-27T08:45:53;97669.94;;;20.19
20730;BMP280;10526;50.850;12.928;2022-08-27T09:00:12;97679.72;;;20.31
20730;BMP280;10526;50.850;12.928;2022-08-27T09:04:35;97673.06;;;20.32
20730;BMP280;10526;50.850;12.928;2022-08-27T09:09:07;97675.53;;;20.30
20730;BMP280;10526;50.850;12.928;2022-08-27T09:13:51;97678.34;;;20.21
20730;BMP280;10526;50.850;12.928;2022-08-27T09:18:15;97677.78;;;20.17
20730;BMP280;10526;50.850;12.928;2022-08-27T09:27:33;97685.81;;;20.11
20730;BMP280;10526;50.850;12.928;2022-08-27T09:31:59;97679.53;;;20.20
20730;BMP280;10526;50.850;12.928;2022-08-27T09:36:21;97680.44;;;20.31
20730;BMP280;10526;50.850;12.928;2022-08-27T09:40:50;97677.69;;;20.46
20730;BMP280;10526;50.850;12.928;2022-08-27T09:45:23;97685.63;;;20.70
20730;BMP280;10526;50.850;12.928;2022-08-27T09:49:46;97681.13;;;21.08
20730;BMP280;10526;50.850;12.928;2022-08-27T09:54:08;97686.88;;;21.41
20730;BMP280;10526;50.850;12.928;2022-08-27T09:58:50;97682.31;;;21.53
20730;BMP280;10526;50.850;12.928;2022-08-27T10:03:13;97686.25;;;21.83
20730;BMP280;10526;50.850;12.928;2022-08-27T10:07:55;97690.06;;;21.97
20730;BMP280;10526;50.850;12.928;2022-08-27T10:32:30;97686.06;;;21.92
20730;BMP280;10526;50.850;12.928;2022-08-27T10:41:41;97683.78;;;22.17
20730;BMP280;10526;50.850;12.928;2022-08-27T10:51:24;97685.84;;;22.33
20730;BMP280;10526;50.850;12.928;2022-08-27T10:56:04;97682.88;;;22.42
20730;BMP280;10526;50.850;12.928;2022-08-27T11:00:50;97676.06;;;22.52
20730;BMP280;10526;50.850;12.928;2022-08-27T11:05:30;97682.31;;;22.75
20730;BMP280;10526;50.850;12.928;2022-08-27T11:10:27;97682.69;;;23.33
20730;BMP280;10526;50.850;12.928;2022-08-27T11:15:12;97682.66;;;23.27
20730;BMP280;10526;50.850;12.928;2022-08-27T11:24:56;97674.19;;;22.81
20730;BMP280;10526;50.850;12.928;2022-08-27T11:29:30;97679.69;;;23.14
20730;BMP280;10526;50.850;12.928;2022-08-27T11:34:13;97674.53;;;23.39
20730;BMP280;10526;50.850;12.928;2022-08-27T11:39:04;97679.94;;;23.61
20730;BMP280;10526;50.850;12.928;2022-08-27T11:43:36;97677.75;;;23.43
20730;BMP280;10526;50.850;12.928;2022-08-27T11:52:59;97684.66;;;23.44
20730;BMP280;10526;50.850;12.928;2022-08-27T11:57:33;97676.75;;;23.23
20730;BMP280;10526;50.850;12.928;2022-08-27T12:02:19;97683.13;;;22.98
20730;BMP280;10526;50.850;12.928;2022-08-27T12:06:50;97677.66;;;22.92
20730;BMP280;10526;50.850;12.928;2022-08-27T12:25:36;97679.84;;;22.23
20730;BMP280;10526;50.850;12.928;2022-08-27T12:30:21;97686.97;;;21.84
20730;BMP280;10526;50.850;12.928;2022-08-27T12:39:28;97681.78;;;20.56
20730;BMP280;10526;50.850;12.928;2022-08-27T12:44:33;97674.59;;;20.18
20730;BMP280;10526;50.850;12.928;2022-08-27T12:48:59;97672.84;;;20.15
20730;BMP280;10526;50.850;12.928;2022-08-27T12:58:46;97677.97;;;20.48
20730;BMP280;10526;50.850;12.928;2022-08-27T13:03:39;97682.72;;;20.53
20730;BMP280;10526;50.850;12.928;2022-08-27T13:08:03;97685.28;;;20.62
20730;BMP280;10526;50.850;12.928;2022-08-27T13:12:25;97678.38;;;20.61
20730;BMP280;10526;50.850;12.928;2022-08-27T13:17:03;97676.31;;;20.71
20730;BMP280;10526;50.850;12.928;2022-08-27T13:21:28;97679.72;;;20.92
20730;BMP280;10526;50.850;12.928;2022-08-27T13:26:09;97681.75;;;20.97
20730;BMP280;10526;50.850;12.928;2022-08-27T13:30:33;97682.72;;;21.20
20730;BMP280;10526;50.850;12.928;2022-08-27T13:34:59;97682.00;;;21.45
20730;BMP280;10526;50.850;12.928;2022-08-27T13:39:22;97685.47;;;21.77
20730;BMP280;10526;50.850;12.928;2022-08-27T13:43:46;97686.06;;;21.92
20730;BMP280;10526;50.850;12.928;2022-08-27T13:48:10;97681.22;;;22.02
20730;BMP280;10526;50.850;12.928;2022-08-27T13:52:36;97692.78;;;21.97
20730;BMP280;10526;50.850;12.928;2022-08-27T13:57:29;97686.25;;;22.20
20730;BMP280;10526;50.850;12.928;2022-08-27T14:06:45;97683.59;;;22.91
20730;BMP280;10526;50.850;12.928;2022-08-27T14:11:09;97682.41;;;23.14
20730;BMP280;10526;50.850;12.928;2022-08-27T14:15:44;97673.28;;;23.17
20730;BMP280;10526;50.850;12.928;2022-08-27T14:20:07;97679.97;;;23.39
20730;BMP280;10526;50.850;12.928;2022-08-27T14:24:30;97683.66;;;23.80
20730;BMP280;10526;50.850;12.928;2022-08-27T14:28:53;97681.38;;;24.12
20730;BMP280;10526;50.850;12.928;2022-08-27T14:33:15;97691.75;;;24.19
20730;BMP280;10526;50.850;12.928;2022-08-27T14:37:39;97693.97;;;24.10
20730;BMP280;10526;50.850;12.928;2022-08-27T14:42:03;97688.84;;;23.67
20730;BMP280;10526;50.850;12.928;2022-08-27T14:46:30;97685.63;;;23.24
20730;BMP280;10526;50.850;12.928;2022-08-27T14:50:53;97676.47;;;23.49
20730;BMP280;10526;50.850;12.928;2022-08-27T14:55:16;97687.13;;;23.92
20730;BMP280;10526;50.850;12.928;2022-08-27T14:59:38;97689.47;;;24.29
20730;BMP280;10526;50.850;12.928;2022-08-27T15:04:01;97682.50;;;24.34
20730;BMP280;10526;50.850;12.928;2022-08-27T15:08:24;97686.88;;;23.73
20730;BMP280;10526;50.850;12.928;2022-08-27T15:12:53;97698.88;;;22.83
20730;BMP280;10526;50.850;12.928;2022-08-27T15:17:15;97702.31;;;21.92
20730;BMP280;10526;50.850;12.928;2022-08-27T15:22:19;97703.72;;;21.25
20730;BMP280;10526;50.850;12.928;2022-08-27T15:26:42;97712.00;;;20.95
20730;BMP280;10526;50.850;12.928;2022-08-27T15:31:04;97698.38;;;20.64
20730;BMP280;10526;50.850;12.928;2022-08-27T15:35:26;97690.69;;;20.42
20730;BMP280;10526;50.850;12.928;2022-08-27T15:39:49;97694.88;;;20.43
20730;BMP280;10526;50.850;12.928;2022-08-27T15:44:11;97690.28;;;20.49
20730;BMP280;10526;50.850;12.928;2022-08-27T15:48:35;97708.09;;;20.56
20730;BMP280;10526;50.850;12.928;2022-08-27T15:53:04;97696.44;;;20.50
20730;BMP280;10526;50.850;12.928;2022-08-27T15:57:27;97704.34;;;20.33
20730;BMP280;10526;50.850;12.928;2022-08-27T16:01:49;97707.13;;;20.24
20730;BMP280;10526;50.850;12.928;2022-08-27T16:06:12;97696.63;;;20.26
20730;BMP280;10526;50.850;12.928;2022-08-27T16:10:40;97702.25;;;20.43
20730;BMP280;10526;50.850;12.928;2022-08-27T16:15:05;97708.34;;;20.58
20730;BMP280;10526;50.850;12.928;2022-08-27T16:19:28;97709.63;;;20.62
20730;BMP280;10526;50.850;12.928;2022-08-27T16:23:51;97711.56;;;20.56
20730;BMP280;10526;50.850;12.928;2022-08-27T16:28:13;97705.03;;;20.48
20730;BMP280;10526;50.850;12.928;2022-08-27T16:32:35;97704.31;;;20.48
20730;BMP280;10526;50.850;12.928;2022-08-27T16:36:57;97700.63;;;20.51
20730;BMP280;10526;50.850;12.928;2022-08-27T16:41:19;97700.84;;;20.47
20730;BMP280;10526;50.850;12.928;2022-08-27T16:45:43;97705.16;;;20.39
20730;BMP280;10526;50.850;12.928;2022-08-27T16:50:06;97704.06;;;20.31
20730;BMP280;10526;50.850;12.928;2022-08-27T16:54:47;97706.69;;;20.25
20730;BMP280;10526;50.850;12.928;2022-08-27T16:59:10;97716.84;;;20.16
20730;BMP280;10526;50.850;12.928;2022-08-27T17:03:42;97714.94;;;19.87
20730;BMP280;10526;50.850;12.928;2022-08-27T17:08:25;97717.53;;;19.52
20730;BMP280;10526;50.850;12.928;2022-08-27T17:12:48;97717.88;;;19.30
20730;BMP280;10526;50.850;12.928;2022-08-27T17:17:10;97729.28;;;19.10
20730;BMP280;10526;50.850;12.928;2022-08-27T17:21:34;97724.84;;;18.98
20730;BMP280;10526;50.850;12.928;2022-08-27T17:25:58;97735.72;;;18.89
20730;BMP280;10526;50.850;12.928;2022-08-27T17:30:21;97743.22;;;18.85
20730;BMP280;10526;50.850;12.928;2022-08-27T17:34:43;97748.63;;;18.85
20730;BMP280;10526;50.850;12.928;2022-08-27T17:39:05;97746.06;;;18.81
20730;BMP280;10526;50.850;12.928;2022-08-27T17:43:27;97757.34;;;18.79
20730;BMP280;10526;50.850;12.928;2022-08-27T17:47:49;97754.66;;;18.79
20730;BMP280;10526;50.850;12.928;2022-08-27T17:52:13;97762.44;;;18.77
20730;BMP280;10526;50.850;12.928;2022-08-27T17:56:36;97766.63;;;18.78
20730;BMP280;10526;50.850;12.928;2022-08-27T18:01:00;97758.53;;;18.78
20730;BMP280;10526;50.850;12.928;2022-08-27T18:05:26;97774.56;;;18.82
20730;BMP280;10526;50.850;12.928;2022-08-27T18:09:48;97774.13;;;18.83
20730;BMP280;10526;50.850;12.928;2022-08-27T18:14:11;97786.66;;;18.87
20730;BMP280;10526;50.850;12.928;2022-08-27T18:18:38;97789.38;;;18.87
20730;BMP280;10526;50.850;12.928;2022-08-27T18:23:02;97781.59;;;18.89
20730;BMP280;10526;50.850;12.928;2022-08-27T18:27:28;97792.19;;;18.92
20730;BMP280;10526;50.850;12.928;2022-08-27T18:31:51;97790.53;;;18.95
20730;BMP280;10526;50.850;12.928;2022-08-27T18:36:13;97799.56;;;18.92
20730;BMP280;10526;50.850;12.928;2022-08-27T18:40:43;97801.03;;;18.93
20730;BMP280;10526;50.850;12.928;2022-08-27T18:45:10;97804.50;;;18.93
20730;BMP280;10526;50.850;12.928;2022-08-27T18:49:33;97804.94;;;18.92
20730;BMP280;10526;50.850;12.928;2022-08-27T18:53:55;97812.88;;;18.95
20730;BMP280;10526;50.850;12.928;2022-08-27T18:58:18;97820.50;;;18.97
20730;BMP280;10526;50.850;12.928;2022-08-27T19:02:41;97820.50;;;18.97
20730;BMP280;10526;50.850;12.928;2022-08-27T19:07:03;97813.47;;;18.90
20730;BMP280;10526;50.850;12.928;2022-08-27T19:11:26;97815.44;;;18.90
20730;BMP280;10526;50.850;12.928;2022-08-27T19:15:56;97816.19;;;18.90
20730;BMP280;10526;50.850;12.928;2022-08-27T19:20:19;97820.81;;;18.90
20730;BMP280;10526;50.850;12.928;2022-08-27T19:24:41;97819.34;;;18.89
20730;BMP280;10526;50.850;12.928;2022-08-27T19:29:03;97822.53;;;18.87
20730;BMP280;10526;50.850;12.928;2022-08-27T19:33:26;97827.13;;;18.87
20730;BMP280;10526;50.850;12.928;2022-08-27T19:37:49;97819.81;;;18.87
20730;BMP280;10526;50.850;12.928;2022-08-27T19:42:14;97822.06;;;18.89
20730;BMP280;10526;50.850;12.928;2022-08-27T19:46:36;97826.22;;;18.90
20730;BMP280;10526;50.850;12.928;2022-08-27T19:50:58;97818.63;;;18.88
20730;BMP280;10526;50.850;12.928;2022-08-27T19:55:20;97820.75;;;18.84
20730;BMP280;10526;50.850;12.928;2022-08-27T19:59:43;97816.22;;;18.81
20730;BMP280;10526;50.850;12.928;2022-08-27T20:04:05;97823.75;;;18.77
20730;BMP280;10526;50.850;12.928;2022-08-27T20:08:28;97823.16;;;18.73
20730;BMP280;10526;50.850;12.928;2022-08-27T20:12:50;97834.88;;;18.70
20730;BMP280;10526;50.850;12.928;2022-08-27T20:17:12;97838.03;;;18.68
20730;BMP280;10526;50.850;12.928;2022-08-27T20:21:37;97839.69;;;18.66
20730;BMP280;10526;50.850;12.928;2022-08-27T20:25:59;97843.75;;;18.61
20730;BMP280;10526;50.850;12.928;2022-08-27T20:30:26;97847.03;;;18.56
20730;BMP280;10526;50.850;12.928;2022-08-27T20:34:48;97845.56;;;18.55
20730;BMP280;10526;50.850;12.928;2022-08-27T20:39:10;97839.41;;;18.55
20730;BMP280;10526;50.850;12.928;2022-08-27T20:43:34;97843.59;;;18.56
20730;BMP280;10526;50.850;12.928;2022-08-27T20:47:56;97837.16;;;18.53
20730;BMP280;10526;50.850;12.928;2022-08-27T20:52:19;97841.81;;;18.52
20730;BMP280;10526;50.850;12.928;2022-08-27T20:56:41;97840.31;;;18.51
20730;BMP280;10526;50.850;12.928;2022-08-27T21:01:13;97838.38;;;18.52
20730;BMP280;10526;50.850;12.928;2022-08-27T21:05:37;97839.28;;;18.49
20730;BMP280;10526;50.850;12.928;2022-08-27T21:09:59;97854.25;;;18.50
20730;BMP280;10526;50.850;12.928;2022-08-27T21:14:21;97850.38;;;18.51
20730;BMP280;10526;50.850;12.928;2022-08-27T21:18:44;97840.31;;;18.51
20730;BMP280;10526;50.850;12.928;2022-08-27T21:23:06;97839.56;;;18.51
20730;BMP280;10526;50.850;12.928;2022-08-27T21:27:28;97839.13;;;18.52
20730;BMP280;10526;50.850;12.928;2022-08-27T21:31:50;97835.50;;;18.56
20730;BMP280;10526;50.850;12.928;2022-08-27T21:36:13;97835.34;;;18.59
20730;BMP280;10526;50.850;12.928;2022-08-27T21:40:35;97835.97;;;18.54
20730;BMP280;10526;50.850;12.928;2022-08-27T21:44:57;97840.47;;;18.48
20730;BMP280;10526;50.850;12.928;2022-08-27T21:49:19;97837.19;;;18.44
20730;BMP280;10526;50.850;12.928;2022-08-27T21:53:42;97839.28;;;18.40
20730;BMP280;10526;50.850;12.928;2022-08-27T21:58:04;97824.94;;;18.34
20730;BMP280;10526;50.850;12.928;2022-08-27T22:02:26;97838.13;;;18.32
20730;BMP280;10526;50.850;12.928;2022-08-27T22:07:01;97834.84;;;18.28
20730;BMP280;10526;50.850;12.928;2022-08-27T22:11:23;97834.53;;;18.26
20730;BMP280;10526;50.850;12.928;2022-08-27T22:15:46;97830.31;;;18.25
20730;BMP280;10526;50.850;12.928;2022-08-27T22:20:10;97829.75;;;18.20
20730;BMP280;10526;50.850;12.928;2022-08-27T22:24:32;97832.44;;;18.20
20730;BMP280;10526;50.850;12.928;2022-08-27T22:28:54;97835.75;;;18.15
20730;BMP280;10526;50.850;12.928;2022-08-27T22:33:17;97831.72;;;18.11
20730;BMP280;10526;50.850;12.928;2022-08-27T22:37:40;97833.50;;;18.05
20730;BMP280;10526;50.850;12.928;2022-08-27T22:42:02;97838.78;;;17.99
20730;BMP280;10526;50.850;12.928;2022-08-27T22:46:24;97831.28;;;17.94
20730;BMP280;10526;50.850;12.928;2022-08-27T22:50:46;97832.16;;;17.91
20730;BMP280;10526;50.850;12.928;2022-08-27T22:55:12;97831.88;;;17.89
20730;BMP280;10526;50.850;12.928;2022-08-27T22:59:34;97826.16;;;17.87
20730;BMP280;10526;50.850;12.928;2022-08-27T23:03:56;97825.41;;;17.86
20730;BMP280;10526;50.850;12.928;2022-08-27T23:08:18;97836.94;;;17.87
20730;BMP280;10526;50.850;12.928;2022-08-27T23:12:42;97845.03;;;17.87
20730;BMP280;10526;50.850;12.928;2022-08-27T23:17:09;97852.34;;;17.86
20730;BMP280;10526;50.850;12.928;2022-08-27T23:21:30;97862.25;;;17.89
20730;BMP280;10526;50.850;12.928;2022-08-27T23:25:53;97860.03;;;17.88
20730;BMP280;10526;50.850;12.928;2022-08-27T23:30:35;97862.72;;;17.88
20730;BMP280;10526;50.850;12.928;2022-08-27T23:34:57;97869.28;;;17.87
20730;BMP280;10526;50.850;12.928;2022-08-27T23:39:19;97865.56;;;17.84
20730;BMP280;10526;50.850;12.928;2022-08-27T23:43:42;97866.44;;;17.81
20730;BMP280;10526;50.850;12.928;2022-08-27T23:48:05;97868.06;;;17.79
20730;BMP280;10526;50.850;12.928;2022-08-27T23:52:27;97867.34;;;17.78
20730;BMP280;10526;50.850;12.928;2022-08-27T23:56:49;97859.69;;;17.77
